Terminal Aerodrome Forecast
Issued by NWS

Home | Current Version | Previous Version | Text Only | Print | Product List | Glossary On
Versions: 1 2 3 4 5 6 7 8 9 10 11 12 13 14 15 16 17 18
000
FTUS42 KTBW 292300
TAFPGD
TAF
KPGD 292335Z 3000/3024 VRB05KT P6SM SCT100 BKN250
     FM301400 13008KT P6SM SCT025
     FM302000 16008KT P6SM VCTS SCT040CB=

USA.gov is the U.S. government's official web portal to all federal, state and local government web resources and services.